x

Port Stanley (45132) Wave Buoy

4:00am - Tue 30th Jun 2015 All times are CDT. -5 hours from GMT.

  • Sig Wave height 0.7ft
  • Peak Period 2s
  • Wind
    13mph, 16mph gusts
  • Sea Temp 62°f
  • Air Temp 62°f
  • Sea Pressure 1008.9mb
  • Port Stanley
  • Port Stanley

More Historic Weather Station data

Upgrade to MSW Pro to gain access to the past 30 days of data for over 8000 Wavebouys and Weather Stations around the globe.

Join Pro

Comparision Forecast

View Surf forecast
   
Tue 06/30 4:00am 0.7ft 2s 13 16 mph 1008.9mb 62f 62f
3:00am 0.7ft 2s 9
mph
1009.4mb 62f 62f
2:00am 0.7ft 2s 9 11 mph 1009.9mb 62f 62f
1:00am 0.3ft 3s 13
mph
1010.1mb 62f 64f
12:00am 0.3ft 3s 9 13 mph 1010.7mb 62f 63f
Mon 06/29 11:00pm 0.3ft 3s 7
mph
1010.9mb 62f 63f
10:00pm 0.7ft 3s 7
mph
1011.2mb 62f 63f
9:00pm 0.7ft 3s 4 7 mph 1011.4mb 63f 63f
8:00pm 0.3ft 3s  -  2 mph 1011.4mb 63f 64f
7:00pm 0.3ft 3s  -  mph 1011.1mb 63f 65f
6:00pm 0.3ft 3s 4
mph
1011.2mb 63f 65f
5:00pm 0.3ft 3s 7
mph
1011.6mb 63f 64f
4:00pm 0.3ft 3s 9
mph
1011.7mb 63f 65f
3:00pm 0.3ft 3s 9
mph
1011.8mb 63f 65f
2:00pm 0.3ft 3s 9
mph
1012.1mb 63f 66f
1:00pm 0.3ft 2s 4
mph
1012.5mb 63f 65f
12:00pm 0.3ft 2s 4
mph
1012.7mb 62f 64f
11:00am 0.3ft 2s 7 9 mph 1012.6mb 61f 63f
10:00am 0.3ft 2s 9 11 mph 1012.7mb 61f 62f
9:00am 0.3ft 3s 9 11 mph 1012.6mb 61f 62f
8:00am 0.3ft 4s 9 11 mph 1012.6mb 61f 62f
7:00am 0.3ft 4s 7 9 mph 1012.2mb 60f 62f
6:00am 0.3ft 4s 7
mph
1011.7mb 60f 61f
5:00am 0.3ft 4s 4
mph
1011.5mb 60f 61f
4:00am 0.3ft 4s 7 11 mph 1011.8mb 60f 62f
3:00am 0.3ft 4s 4 7 mph 1011.5mb 60f 61f
2:00am 0.3ft 5s 2 4 mph 1012mb 60f 61f
1:00am 0.3ft 4s 4 7 mph 1012mb 60f 62f
12:00am 0.3ft 5s 7 9 mph 1012.1mb 60f 62f
Sun 06/28 11:00pm 0.7ft 3s 4 7 mph 1011.8mb 60f 61f
10:00pm 1ft 3s 9 11 mph 1011.7mb 60f 62f
9:00pm 1ft 3s 11 13 mph 1011.1mb 60f 62f
8:00pm 1.3ft 3s 11 13 mph 1011.1mb 61f 63f
7:00pm 1.6ft 3s 13 18 mph 1010.9mb 61f 63f
6:00pm 2ft 4s 16 20 mph 1010.1mb 61f 63f
5:00pm 2.5ft 4s 16 18 mph 1009.7mb 61f 62f
4:00pm 2ft 3s 20 22 mph 1009.6mb 61f 61f
3:00pm 1.3ft 3s 16 18 mph 1009.3mb 61f 62f
2:00pm 1.3ft 3s 13 16 mph 1008.9mb 61f 61f
1:00pm 1.6ft 3s 13 18 mph 1008.7mb 60f 61f
12:00pm 1.3ft 3s 16 18 mph 1008.5mb 60f 60f
11:00am 2.5ft 4s 13 16 mph 1008.2mb 60f 58f
10:00am 2.5ft 4s 18 22 mph 1007.5mb 60f 60f
9:00am 2.5ft 4s 20 25 mph 1006.8mb 60f 58f
8:00am 2.5ft 4s 20 25 mph 1006.4mb 59f 57f
7:00am 2.5ft 3s 20 25 mph 1005.5mb 59f 57f
6:00am 2.5ft 5s 20 27 mph 1004.9mb 59f 57f
5:00am 3ft 5s 18 22 mph 1004.2mb 59f 57f
4:00am 3ft 5s 20 25 mph 1003.4mb 59f 57f
3:00am  -   -  20
mph
1003.1mb - 58f
2:00am 4ft 5s 22 27 mph 1003.3mb 59f 58f
1:00am 4.5ft 5s 22 27 mph 1003.6mb 59f 59f
12:00am 4.5ft 5s 25 29 mph 1003.8mb 59f 59f
Sat 06/27 11:00pm 5.5ft 6s 25 29 mph 1003.9mb 59f 59f
10:00pm 6ft 6s 29 34 mph 1003.9mb 59f 60f
9:00pm 7ft 6s 31 40 mph 1003.4mb 59f 60f
8:00pm 7ft 6s 29 36 mph 1003.4mb 59f 61f
6:00pm 6.5ft 7s 31 38 mph 1002.9mb 60f 62f
5:00pm 7ft 6s 29 36 mph 1003.3mb 60f 61f
4:00pm 7ft 7s 31 38 mph 1003.4mb 60f 62f
3:00pm 7.5ft 7s 31 38 mph 1004.3mb 61f 61f
2:00pm 8ft 6s 31 38 mph 1004.8mb 61f 61f
12:00pm 5ft 5s 31 38 mph 1006.4mb 62f 61f
11:00am 5ft 6s 29 38 mph 1007.2mb 62f 61f
10:00am 4.5ft 6s 29 38 mph 1008.5mb 62f 60f
9:00am 4.5ft 6s 27 34 mph 1009.9mb 62f 61f
8:00am 5ft 6s 27 31 mph 1010.6mb 63f 61f
7:00am 4.5ft 6s 29 36 mph 1010.7mb 63f 62f
6:00am 4.5ft 5s 22 29 mph 1011.1mb 63f 65f
5:00am 4ft 5s 20 25 mph 1012mb 63f 65f
3:00am 4.5ft 5s 22 27 mph 1012.6mb 64f 66f
2:00am 4.5ft 5s 22 27 mph 1013.4mb 64f 66f
1:00am 3.5ft 5s 22 27 mph 1014.2mb 64f 66f
12:00am 3ft 5s 22 27 mph 1014.9mb 64f 67f
Fri 06/26 11:00pm 2ft 4s 20 25 mph 1015.4mb 64f 67f
10:00pm 1.6ft 3s 18 20 mph 1015.8mb 64f 67f
9:00pm 1.3ft 3s 16 18 mph 1016.1mb 64f 67f
8:00pm 1.3ft 4s 11 13 mph 1016.3mb 64f 67f
7:00pm 1.3ft 4s 11 13 mph 1016.6mb 64f 67f
6:00pm 1.3ft 4s 9 11 mph 1016.6mb 64f 66f
5:00pm 1.6ft 4s 11 13 mph 1016.7mb 64f 67f
4:00pm 1.6ft 4s 11 13 mph 1017.2mb 65f 66f
3:00pm 1.6ft 4s 13
mph
1017mb 64f 66f
2:00pm 1.6ft 4s 9 11 mph 1017.4mb 64f 65f
1:00pm 1.6ft 4s 11 13 mph 1017.7mb 64f 65f
12:00pm 1.6ft 4s 11 13 mph 1017.9mb 64f 65f
11:00am 1.3ft 4s 11 13 mph 1018.2mb 64f 65f